createdAt,value
2023-04-27T00:00:48.458Z,38191.69
2023-04-27T00:03:15.904Z,38231.59
2023-04-27T00:05:42.988Z,38249.53
2023-04-27T00:08:09.633Z,38241.56
2023-04-27T00:10:36.038Z,38323.31
2023-04-27T00:13:02.444Z,38343.25
2023-04-27T00:15:29.511Z,38359.22
2023-04-27T00:17:57.358Z,38359.22
2023-04-27T00:20:23.963Z,38448.94
2023-04-27T00:22:50.609Z,38470.88
2023-04-27T00:25:17.004Z,38496.81
2023-04-27T00:27:43.416Z,38550.66
2023-04-27T00:30:10.229Z,38600.53
2023-04-27T00:32:36.671Z,38626.44
2023-04-27T00:35:03.360Z,38658.34
2023-04-27T00:37:29.793Z,38688.28
2023-04-27T00:39:56.246Z,38776.03
2023-04-27T00:42:22.969Z,38791.97
2023-04-27T00:44:51.044Z,38873.75
2023-04-27T00:47:17.909Z,38901.69
2023-04-27T00:49:44.852Z,38951.56
2023-04-27T00:52:11.658Z,38977.47
2023-04-27T00:54:38.330Z,39025.34
2023-04-27T00:57:05.134Z,39101.16
2023-04-27T00:59:32.117Z,39157.00
2023-04-27T01:01:59.392Z,39198.88
2023-04-27T01:04:26.857Z,39236.78
2023-04-27T01:06:54.706Z,39262.72
2023-04-27T01:09:21.371Z,39312.59
2023-04-27T01:11:49.720Z,39400.34
2023-04-27T01:14:17.170Z,39396.38
2023-04-27T01:16:44.330Z,39444.25
2023-04-27T01:19:11.023Z,39500.09
2023-04-27T01:21:37.963Z,39565.94
2023-04-27T01:24:06.246Z,39619.81
2023-04-27T01:26:33.581Z,39649.72
2023-04-27T01:29:00.188Z,39689.63
2023-04-27T01:31:27.225Z,39727.53
2023-04-27T01:33:53.667Z,39761.44
2023-04-27T01:36:20.100Z,39829.28
2023-04-27T01:38:48.118Z,39851.22
2023-04-27T01:41:14.773Z,39919.06
2023-04-27T01:43:43.541Z,39958.97
2023-04-27T01:46:13.079Z,39968.94
2023-04-27T01:48:41.724Z,40016.81
2023-04-27T01:51:08.179Z,40046.75
2023-04-27T01:53:34.683Z,40094.63
2023-04-27T01:56:01.422Z,40114.59
2023-04-27T01:58:28.341Z,40152.50
2023-04-27T02:00:54.986Z,40186.41
2023-04-27T02:03:22.008Z,40222.34
2023-04-27T02:05:50.352Z,40236.31
2023-04-27T02:08:17.124Z,40258.25
2023-04-27T02:10:44.641Z,40292.19
2023-04-27T02:13:11.131Z,40322.09
2023-04-27T02:15:37.679Z,40362.00
2023-04-27T02:18:04.603Z,40385.97
2023-04-27T02:20:32.035Z,40377.97
2023-04-27T02:23:00.937Z,40409.91
2023-04-27T02:25:27.538Z,40455.81
2023-04-27T02:27:54.594Z,40451.81
2023-04-27T02:30:21.666Z,40519.66
2023-04-27T02:32:48.602Z,40557.56
2023-04-27T02:35:16.006Z,40577.53
2023-04-27T02:37:42.494Z,40611.44
2023-04-27T02:40:09.764Z,40605.47
2023-04-27T02:42:38.359Z,40667.31
2023-04-27T02:45:07.123Z,40693.28
2023-04-27T02:47:33.916Z,40697.25
2023-04-27T02:50:01.141Z,40705.25
2023-04-27T02:52:27.813Z,40745.16
2023-04-27T02:54:54.357Z,40745.16
2023-04-27T02:57:20.965Z,40769.09
2023-04-27T02:59:47.931Z,40799.03
2023-04-27T03:02:14.502Z,40785.06
2023-04-27T03:04:40.973Z,40809.00
2023-04-27T03:07:07.684Z,40828.97
2023-04-27T03:09:34.474Z,40840.94
2023-04-27T03:12:01.221Z,40852.91
2023-04-27T03:14:27.647Z,40884.84
2023-04-27T03:16:56.043Z,40872.88
2023-04-27T03:19:22.618Z,40932.75
2023-04-27T03:21:50.223Z,40926.75
2023-04-27T03:24:17.151Z,40936.75
2023-04-27T03:26:44.145Z,40956.69
2023-04-27T03:29:10.612Z,40988.63
2023-04-27T03:31:37.537Z,41006.59
2023-04-27T03:34:04.060Z,41004.59
2023-04-27T03:36:32.139Z,40980.66
2023-04-27T03:38:58.636Z,41000.59
2023-04-27T03:41:25.531Z,41040.53
2023-04-27T03:43:53.316Z,41086.44
2023-04-27T03:46:19.963Z,41088.44
2023-04-27T03:48:47.270Z,41116.38
2023-04-27T03:51:14.916Z,41110.38
2023-04-27T03:53:43.230Z,41120.34
2023-04-27T03:56:09.686Z,41152.28
2023-04-27T03:58:36.956Z,41152.28
2023-04-27T04:01:26.188Z,41168.25
2023-04-27T04:03:53.604Z,41148.31
2023-04-27T04:06:20.620Z,41150.28
2023-04-27T04:08:47.715Z,41178.25
2023-04-27T04:11:14.295Z,41180.22
2023-04-27T04:13:42.050Z,41196.19
2023-04-27T04:16:09.747Z,41216.16
2023-04-27T04:18:37.161Z,41208.19
2023-04-27T04:21:05.021Z,41208.19
2023-04-27T04:23:32.780Z,41256.09
2023-04-27T04:25:59.911Z,41258.06
2023-04-27T04:28:30.890Z,41264.06
2023-04-27T04:30:57.461Z,41276.03
2023-04-27T04:33:24.274Z,41286.03
2023-04-27T04:35:51.832Z,41300.00
2023-04-27T04:38:18.665Z,41323.94
2023-04-27T04:40:46.147Z,41337.91
2023-04-27T04:43:13.197Z,41345.91
2023-04-27T04:45:40.077Z,41375.84
2023-04-27T04:48:06.590Z,41413.75
2023-04-27T04:50:34.610Z,41431.72
2023-04-27T04:53:01.438Z,41443.72
2023-04-27T04:55:28.350Z,41475.63
2023-04-27T04:57:54.935Z,41459.66
2023-04-27T05:00:22.348Z,41499.59
2023-04-27T05:02:48.884Z,41517.56
2023-04-27T05:05:15.907Z,41509.56
2023-04-27T05:07:42.965Z,41557.47
2023-04-27T05:10:09.527Z,41579.44
2023-04-27T05:12:35.954Z,41581.44
2023-04-27T05:15:02.454Z,41607.38
2023-04-27T05:17:28.926Z,41603.41
2023-04-27T05:19:55.403Z,41611.38
2023-04-27T05:22:22.363Z,41591.41
2023-04-27T05:24:48.832Z,41603.41
2023-04-27T05:27:15.243Z,41631.34
2023-04-27T05:29:42.274Z,41627.34
2023-04-27T05:32:09.435Z,41587.44
2023-04-27T05:34:36.735Z,41627.34
2023-04-27T05:37:03.403Z,41603.41
2023-04-27T05:39:29.886Z,41603.41
2023-04-27T05:41:57.342Z,41579.44
2023-04-27T05:44:28.190Z,41521.56
2023-04-27T05:46:56.247Z,41513.56
2023-04-27T05:49:23.418Z,41459.66
2023-04-27T05:51:50.054Z,41405.78
2023-04-27T05:54:16.455Z,41387.81
2023-04-27T05:56:42.914Z,41377.84
2023-04-27T05:59:09.852Z,41331.94
2023-04-27T06:01:36.760Z,41296.00
2023-04-27T06:04:03.862Z,41248.09
2023-04-27T06:06:35.251Z,41216.16
2023-04-27T06:09:01.732Z,41162.28
2023-04-27T06:11:28.513Z,41128.34
2023-04-27T06:13:54.947Z,41062.47
2023-04-27T06:16:21.536Z,41020.56
2023-04-27T06:18:50.456Z,41000.59
2023-04-27T06:21:17.294Z,40978.66
2023-04-27T06:23:44.062Z,40976.66
2023-04-27T06:26:10.484Z,40926.75
2023-04-27T06:28:36.860Z,40886.84
2023-04-27T06:31:03.484Z,40860.91
2023-04-27T06:33:29.877Z,40811.00
2023-04-27T06:35:56.258Z,40815.00
2023-04-27T06:38:22.643Z,40781.06
2023-04-27T06:40:53.151Z,40733.19
2023-04-27T06:43:19.723Z,40713.22
2023-04-27T06:45:46.387Z,40685.28
2023-04-27T06:48:12.935Z,40615.44
2023-04-27T06:50:39.679Z,40539.59
2023-04-27T06:53:06.189Z,40583.50
2023-04-27T06:55:32.791Z,40537.63
2023-04-27T06:57:59.185Z,40527.63
2023-04-27T07:00:27.200Z,40501.69
2023-04-27T07:02:53.756Z,40501.69
2023-04-27T07:05:20.417Z,40457.78
2023-04-27T07:07:46.815Z,40437.84
2023-04-27T07:10:13.212Z,40439.84
2023-04-27T07:12:40.751Z,40393.94
2023-04-27T07:15:07.921Z,40362.00
2023-04-27T07:17:34.564Z,40330.09
2023-04-27T07:20:01.892Z,40348.03
2023-04-27T07:22:28.818Z,40362.00
2023-04-27T07:24:55.260Z,40338.06
2023-04-27T07:27:22.148Z,40318.13
2023-04-27T07:29:48.553Z,40300.16
2023-04-27T07:32:15.147Z,40310.13
2023-04-27T07:34:52.505Z,40332.09
2023-04-27T07:37:20.377Z,40314.13
2023-04-27T07:39:47.266Z,40328.09
2023-04-27T07:42:13.699Z,40348.03
2023-04-27T07:44:40.761Z,40344.06
2023-04-27T07:47:07.278Z,40290.19
2023-04-27T07:49:34.976Z,40302.16
2023-04-27T07:52:01.683Z,40306.13
2023-04-27T07:54:28.094Z,40280.19
2023-04-27T07:56:54.730Z,40242.28
2023-04-27T07:59:21.410Z,40298.16
2023-04-27T08:01:48.048Z,40272.22
2023-04-27T08:04:16.008Z,40214.34
2023-04-27T08:06:43.180Z,40272.22
2023-04-27T08:09:09.932Z,40264.25
2023-04-27T08:11:36.679Z,40246.28
2023-04-27T08:14:03.191Z,40228.31
2023-04-27T08:16:29.705Z,40184.44
2023-04-27T08:18:57.556Z,40194.41
2023-04-27T08:21:25.067Z,40198.41
2023-04-27T08:23:51.599Z,40166.47
2023-04-27T08:26:18.214Z,40170.47
2023-04-27T08:28:44.575Z,40166.47
2023-04-27T08:31:11.274Z,40136.53
2023-04-27T08:33:38.040Z,40118.59
2023-04-27T08:36:04.990Z,40154.50
2023-04-27T08:38:33.385Z,40072.69
2023-04-27T08:41:07.522Z,40108.59
2023-04-27T08:43:44.950Z,40096.63
2023-04-27T08:46:11.560Z,40058.72
2023-04-27T08:48:37.936Z,40014.81
2023-04-27T08:51:11.159Z,40022.81
2023-04-27T08:53:37.521Z,40044.75
2023-04-27T08:56:04.867Z,39982.91
2023-04-27T08:58:39.188Z,39972.94
2023-04-27T09:01:09.175Z,39958.97
2023-04-27T09:03:37.059Z,39943.00
2023-04-27T09:06:05.986Z,39895.13
2023-04-27T09:08:47.131Z,39895.13
2023-04-27T09:11:31.272Z,39851.22
2023-04-27T09:13:59.635Z,39795.38
2023-04-27T09:16:29.008Z,39721.53
2023-04-27T09:18:57.341Z,39669.69
2023-04-27T09:21:28.571Z,39685.63
2023-04-27T09:23:56.369Z,39675.66
2023-04-27T09:26:24.819Z,39671.66
2023-04-27T09:28:54.453Z,39623.78
2023-04-27T09:31:21.107Z,39601.84
2023-04-27T09:33:55.819Z,39575.91
2023-04-27T09:36:23.144Z,39530.03
2023-04-27T09:38:51.631Z,39532.03
2023-04-27T09:41:18.949Z,39524.03
2023-04-27T09:43:47.153Z,39490.13
2023-04-27T09:46:14.829Z,39500.09
2023-04-27T09:48:41.862Z,39468.19
2023-04-27T09:51:08.931Z,39484.16
2023-04-27T09:53:52.781Z,39490.13
2023-04-27T09:56:46.382Z,39456.22
2023-04-27T09:59:28.055Z,39396.38
2023-04-27T10:01:56.802Z,39394.38
2023-04-27T10:04:29.273Z,39364.44
2023-04-27T10:07:01.128Z,39344.50
2023-04-27T10:09:49.308Z,39308.59
2023-04-27T10:12:23.509Z,39220.81
2023-04-27T10:14:57.289Z,39153.00
2023-04-27T10:17:26.764Z,39162.97
2023-04-27T10:20:02.066Z,39133.06
2023-04-27T10:22:58.182Z,39157.00
2023-04-27T10:25:40.048Z,39153.00
2023-04-27T10:28:08.092Z,39149.03
2023-04-27T10:30:36.814Z,39157.00
2023-04-27T10:33:10.904Z,39121.09
2023-04-27T10:35:38.482Z,39015.38
2023-04-27T10:38:21.779Z,39065.25
2023-04-27T10:41:01.870Z,39017.38
2023-04-27T10:43:30.606Z,38965.50
2023-04-27T10:46:13.968Z,38945.56
2023-04-27T10:48:42.263Z,38875.75
2023-04-27T10:51:09.268Z,38949.56
2023-04-27T10:53:37.283Z,38977.47
2023-04-27T10:56:06.776Z,38997.44
2023-04-27T10:58:45.245Z,39001.41
2023-04-27T11:01:23.992Z,38965.50
2023-04-27T11:03:55.700Z,39348.50
2023-04-27T11:06:22.122Z,39348.50
2023-04-27T11:08:49.110Z,39131.06
2023-04-27T11:11:17.229Z,39097.16
2023-04-27T11:13:44.727Z,39061.25
2023-04-27T11:16:11.233Z,38977.47
2023-04-27T11:18:38.162Z,39029.34
2023-04-27T11:21:07.668Z,38805.94
2023-04-27T11:23:39.095Z,38921.63
2023-04-27T11:26:11.398Z,38726.16
2023-04-27T11:28:38.378Z,38750.09
2023-04-27T11:31:05.168Z,38748.09
2023-04-27T11:33:31.779Z,38770.03
2023-04-27T11:35:58.871Z,38778.03
2023-04-27T11:38:26.414Z,38694.25
2023-04-27T11:41:07.338Z,38658.34
2023-04-27T11:43:34.540Z,38586.56
2023-04-27T11:46:05.811Z,38528.72
2023-04-27T11:48:32.261Z,38476.88
2023-04-27T11:51:01.931Z,38490.84
2023-04-27T11:53:39.568Z,38403.09
2023-04-27T11:56:10.857Z,38359.22
2023-04-27T11:58:39.023Z,38275.44
2023-04-27T12:01:07.771Z,38135.88
2023-04-27T12:03:34.979Z,37972.34
2023-04-27T12:08:31.311Z,37960.38
2023-04-27T12:10:57.722Z,37874.66
2023-04-27T12:13:24.155Z,37721.13
2023-04-27T12:15:50.557Z,37645.34
2023-04-27T12:18:16.915Z,37557.63
2023-04-27T12:20:43.575Z,37489.84
2023-04-27T12:23:10.278Z,37370.22
2023-04-27T12:25:37.520Z,37294.47
2023-04-27T12:28:04.202Z,37402.13
2023-04-27T12:30:31.749Z,37392.16
2023-04-27T12:33:00.218Z,37262.56
2023-04-27T12:35:26.769Z,37282.50
2023-04-27T12:37:53.229Z,37306.41
2023-04-27T12:40:19.680Z,37278.50
2023-04-27T12:42:46.131Z,37198.78
2023-04-27T12:45:12.661Z,37156.91
2023-04-27T12:47:58.093Z,37057.22
2023-04-27T12:50:26.836Z,37057.22
2023-04-27T12:52:53.457Z,37097.09
2023-04-27T12:55:32.139Z,37103.09
2023-04-27T12:58:00.929Z,37039.28
2023-04-27T13:00:27.725Z,37075.16
2023-04-27T13:02:54.315Z,37027.31
2023-04-27T13:05:21.958Z,37095.09
2023-04-27T13:07:48.487Z,37083.16
2023-04-27T13:10:15.202Z,37117.03
2023-04-27T13:12:41.688Z,37039.28
2023-04-27T13:15:09.058Z,36939.63
2023-04-27T13:17:35.486Z,36969.53
2023-04-27T13:20:01.992Z,36979.50
2023-04-27T13:22:28.792Z,36931.66
2023-04-27T13:24:55.462Z,36979.50
2023-04-27T13:27:24.981Z,36975.50
2023-04-27T13:29:51.383Z,36835.97
2023-04-27T13:32:18.517Z,36879.81
2023-04-27T13:34:45.013Z,36822.00
2023-04-27T13:37:11.403Z,36784.13
2023-04-27T13:39:37.957Z,36800.09
2023-04-27T13:42:04.622Z,36744.28
2023-04-27T13:44:31.681Z,36676.50
2023-04-27T13:46:58.409Z,36612.72
2023-04-27T13:49:25.762Z,36624.69
2023-04-27T13:51:52.171Z,36572.84
2023-04-27T13:54:18.564Z,36411.41
2023-04-27T13:56:44.942Z,36351.63
2023-04-27T13:59:11.674Z,36341.66
2023-04-27T14:01:39.847Z,36289.84
2023-04-27T14:04:07.335Z,36319.72
2023-04-27T14:06:33.982Z,36309.78
2023-04-27T14:09:00.367Z,36273.91
2023-04-27T14:11:26.957Z,36253.97
2023-04-27T14:13:53.800Z,36261.94
2023-04-27T14:16:20.833Z,36281.88
2023-04-27T14:18:47.646Z,36293.81
2023-04-27T14:21:14.073Z,36303.78
2023-04-27T14:23:40.864Z,36269.91
2023-04-27T14:26:07.527Z,36202.16
2023-04-27T14:28:34.523Z,36190.19
2023-04-27T14:31:00.895Z,36218.09
2023-04-27T14:33:27.352Z,36212.13
2023-04-27T14:35:54.101Z,36257.94
2023-04-27T14:38:20.664Z,36259.94
2023-04-27T14:40:47.421Z,36263.94
2023-04-27T14:43:14.071Z,36246.00
2023-04-27T14:45:50.824Z,36214.09
2023-04-27T14:48:20.915Z,36234.03
2023-04-27T14:50:47.937Z,36208.13
2023-04-27T14:53:14.322Z,36226.06
2023-04-27T14:55:41.580Z,36295.81
2023-04-27T14:58:08.018Z,36281.88
2023-04-27T15:00:56.429Z,36257.94
2023-04-27T15:03:23.403Z,36158.31
2023-04-27T15:05:49.980Z,36188.19
2023-04-27T15:08:16.425Z,36210.13
2023-04-27T15:10:43.022Z,36182.22
2023-04-27T15:13:09.501Z,36220.09
2023-04-27T15:15:36.029Z,36218.09
2023-04-27T15:18:02.989Z,36251.97
2023-04-27T15:20:29.806Z,36242.00
2023-04-27T15:22:56.230Z,36214.09
2023-04-27T15:25:22.761Z,36136.38
2023-04-27T15:27:49.608Z,36158.31
2023-04-27T15:30:16.264Z,36146.34
2023-04-27T15:32:42.702Z,36182.22
2023-04-27T15:35:09.571Z,36206.13
2023-04-27T15:37:36.628Z,36168.25
2023-04-27T15:40:04.116Z,36259.94
2023-04-27T15:42:30.621Z,36273.91
2023-04-27T15:44:57.862Z,36251.97
2023-04-27T15:47:24.257Z,36194.19
2023-04-27T15:49:57.400Z,36228.06
2023-04-27T15:52:26.299Z,36218.09
2023-04-27T15:54:52.818Z,36265.91
2023-04-27T15:57:19.320Z,36238.03
2023-04-27T15:59:45.876Z,36206.13
2023-04-27T16:02:13.321Z,36251.97
2023-04-27T16:04:39.847Z,36240.00
2023-04-27T16:07:07.242Z,36269.91
2023-04-27T16:09:33.911Z,36246.00
2023-04-27T16:12:01.393Z,36226.06
2023-04-27T16:14:27.820Z,36247.97
2023-04-27T16:16:56.019Z,36261.94
2023-04-27T16:19:23.477Z,36283.84
2023-04-27T16:21:49.848Z,36228.06
2023-04-27T16:24:16.287Z,36257.94
2023-04-27T16:26:42.715Z,36234.03
2023-04-27T16:29:09.128Z,36253.97
2023-04-27T16:31:35.647Z,36240.00
2023-04-27T16:34:03.034Z,36230.06
2023-04-27T16:36:30.284Z,36228.06
2023-04-27T16:38:57.131Z,36240.00
2023-04-27T16:41:24.295Z,36210.13
2023-04-27T16:43:51.178Z,36186.19
2023-04-27T16:46:17.607Z,36194.19
2023-04-27T16:48:44.422Z,36166.28
2023-04-27T16:51:10.819Z,36206.13
2023-04-27T16:53:37.314Z,36222.06
2023-04-27T16:56:04.003Z,36172.25
2023-04-27T16:58:30.784Z,36214.09
2023-04-27T17:00:57.928Z,36184.22
2023-04-27T17:03:25.051Z,36202.16
2023-04-27T17:05:52.238Z,36178.22
2023-04-27T17:08:18.624Z,36134.38
2023-04-27T17:10:45.344Z,36158.31
2023-04-27T17:13:14.561Z,36110.47
2023-04-27T17:15:41.379Z,36126.41
2023-04-27T17:18:09.649Z,36118.44
2023-04-27T17:20:36.617Z,36126.41
2023-04-27T17:23:03.061Z,36110.47
2023-04-27T17:25:29.455Z,36154.31
2023-04-27T17:27:55.822Z,36114.47
2023-04-27T17:30:22.313Z,36134.38
2023-04-27T17:32:48.758Z,36086.56
2023-04-27T17:35:15.839Z,36124.41
2023-04-27T17:37:42.277Z,36102.50
2023-04-27T17:40:09.243Z,36118.44
2023-04-27T17:42:35.965Z,36140.38
2023-04-27T17:45:03.139Z,36150.34
2023-04-27T17:47:29.611Z,36118.44
2023-04-27T17:49:56.121Z,36100.50
2023-04-27T17:52:22.489Z,36088.56
2023-04-27T17:54:48.943Z,36092.53
2023-04-27T17:57:15.298Z,36134.38
2023-04-27T17:59:42.401Z,36110.47
2023-04-27T18:02:08.919Z,36100.50
2023-04-27T18:04:35.533Z,36102.50
2023-04-27T18:07:02.087Z,36098.50
2023-04-27T18:09:30.663Z,36102.50
2023-04-27T18:11:59.024Z,36126.41
2023-04-27T18:14:26.124Z,36096.53
2023-04-27T18:16:52.614Z,36104.50
2023-04-27T18:19:19.284Z,36122.44
2023-04-27T18:21:46.166Z,36098.50
2023-04-27T18:24:12.647Z,36072.59
2023-04-27T18:26:39.045Z,36118.44
2023-04-27T18:29:05.408Z,36106.50
2023-04-27T18:31:31.967Z,36118.44
2023-04-27T18:33:59.225Z,36122.44
2023-04-27T18:36:27.429Z,36104.50
2023-04-27T18:38:55.031Z,36114.47
2023-04-27T18:41:21.482Z,36106.50
2023-04-27T18:43:47.928Z,36104.50
2023-04-27T18:46:14.451Z,36076.59
2023-04-27T18:48:41.173Z,36098.50
2023-04-27T18:51:07.564Z,36118.44
2023-04-27T18:53:34.408Z,36110.47
2023-04-27T18:56:02.041Z,36106.50
2023-04-27T18:58:28.848Z,36138.38
2023-04-27T19:00:55.332Z,36058.66
2023-04-27T19:03:21.852Z,36090.53
2023-04-27T19:05:48.632Z,36098.50
2023-04-27T19:08:15.018Z,36074.59
2023-04-27T19:10:41.624Z,36086.56
2023-04-27T19:13:08.091Z,36090.53
2023-04-27T19:15:34.618Z,36086.56
2023-04-27T19:18:09.932Z,36090.53
2023-04-27T19:20:38.381Z,36068.63
2023-04-27T19:23:05.185Z,36082.56
2023-04-27T19:25:31.656Z,36090.53
2023-04-27T19:27:58.554Z,36086.56
2023-04-27T19:30:25.204Z,36090.53
2023-04-27T19:32:52.139Z,36068.63
2023-04-27T19:35:20.130Z,36094.53
2023-04-27T19:37:46.593Z,36068.63
2023-04-27T19:40:13.099Z,36114.47
2023-04-27T19:42:39.506Z,36102.50
2023-04-27T19:45:06.835Z,36104.50
2023-04-27T19:47:33.288Z,36094.53
2023-04-27T19:49:59.728Z,36072.59
2023-04-27T19:52:26.399Z,36120.44
2023-04-27T19:54:53.881Z,36082.56
2023-04-27T19:57:21.622Z,36100.50
2023-04-27T19:59:48.087Z,36070.63
2023-04-27T20:02:15.430Z,36110.47
2023-04-27T20:04:42.123Z,36110.47
2023-04-27T20:07:08.807Z,36106.50
2023-04-27T20:09:35.525Z,36066.63
2023-04-27T20:12:02.032Z,36090.53
2023-04-27T20:14:29.933Z,36074.59
2023-04-27T20:16:56.435Z,36094.53
2023-04-27T20:19:25.002Z,36046.69
2023-04-27T20:21:51.458Z,36090.53
2023-04-27T20:24:17.977Z,36098.50
2023-04-27T20:26:44.552Z,36086.56
2023-04-27T20:29:11.166Z,36096.53
2023-04-27T20:31:37.602Z,36090.53
2023-04-27T20:34:04.389Z,36094.53
2023-04-27T20:36:32.192Z,36058.66
2023-04-27T20:39:00.906Z,36078.59
2023-04-27T20:41:28.090Z,36070.63
2023-04-27T20:43:55.248Z,36072.59
2023-04-27T20:46:21.743Z,36098.50
2023-04-27T20:48:48.385Z,36062.66
2023-04-27T20:51:14.760Z,36086.56
2023-04-27T20:53:41.248Z,36058.66
2023-04-27T20:56:07.727Z,36102.50
2023-04-27T20:58:34.649Z,36058.66
2023-04-27T21:01:01.078Z,36100.50
2023-04-27T21:03:27.667Z,36074.59
2023-04-27T21:05:54.422Z,36104.50
2023-04-27T21:08:20.992Z,36086.56
2023-04-27T21:10:47.407Z,36070.63
2023-04-27T21:13:13.932Z,36046.69
2023-04-27T21:15:40.367Z,36054.66
2023-04-27T21:18:13.498Z,36050.69
2023-04-27T21:20:45.537Z,36074.59
2023-04-27T21:23:14.511Z,36046.69
2023-04-27T21:25:44.861Z,36090.53
2023-04-27T21:28:12.125Z,36038.72
2023-04-27T21:30:38.935Z,36048.69
2023-04-27T21:33:06.006Z,36034.75
2023-04-27T21:35:32.510Z,36012.81
2023-04-27T21:37:59.393Z,36042.72
2023-04-27T21:40:26.070Z,36030.75
2023-04-27T21:42:53.730Z,36036.75
2023-04-27T21:45:20.910Z,36048.69
2023-04-27T21:47:47.644Z,36040.72
2023-04-27T21:50:14.254Z,36014.81
2023-04-27T21:52:40.860Z,36000.88
2023-04-27T21:55:07.931Z,35998.88
2023-04-27T21:57:34.448Z,36022.78
2023-04-27T22:00:01.005Z,36010.81
2023-04-27T22:02:29.413Z,35976.94
2023-04-27T22:04:56.479Z,35986.91
2023-04-27T22:07:24.517Z,35982.94
2023-04-27T22:09:50.945Z,36028.75
2023-04-27T22:12:17.351Z,35992.91
2023-04-27T22:14:44.006Z,36030.75
2023-04-27T22:17:12.431Z,36012.81
2023-04-27T22:19:38.826Z,36006.84
2023-04-27T22:22:05.343Z,36016.81
2023-04-27T22:24:31.720Z,36016.81
2023-04-27T22:26:58.190Z,36014.81
2023-04-27T22:29:24.620Z,36046.69
2023-04-27T22:31:52.303Z,35992.91
2023-04-27T22:34:18.802Z,36020.78
2023-04-27T22:36:45.373Z,36052.69
2023-04-27T22:39:12.220Z,36046.69
2023-04-27T22:41:38.608Z,36038.72
2023-04-27T22:44:05.741Z,36018.81
2023-04-27T22:46:32.636Z,36026.78
2023-04-27T22:49:01.318Z,36010.81
2023-04-27T22:51:27.885Z,36060.66
2023-04-27T22:53:54.587Z,36046.69
2023-04-27T22:56:21.090Z,36054.66
2023-04-27T22:58:47.536Z,36024.78
2023-04-27T23:01:14.005Z,36050.69
2023-04-27T23:03:40.569Z,36084.56
2023-04-27T23:06:12.100Z,36062.66
2023-04-27T23:08:41.782Z,36070.63
2023-04-27T23:11:09.072Z,36062.66
2023-04-27T23:13:35.471Z,36072.59
2023-04-27T23:16:01.855Z,36098.50
2023-04-27T23:18:28.798Z,36096.53
2023-04-27T23:20:55.204Z,36128.41
2023-04-27T23:23:21.773Z,36128.41
2023-04-27T23:25:48.187Z,36110.47
2023-04-27T23:28:14.700Z,36140.38
2023-04-27T23:30:41.117Z,36134.38
2023-04-27T23:33:07.591Z,36198.16
2023-04-27T23:35:34.044Z,36186.19
2023-04-27T23:38:00.515Z,36232.03
2023-04-27T23:40:26.877Z,36249.97
2023-04-27T23:42:53.307Z,36247.97
2023-04-27T23:45:20.402Z,36277.88
2023-04-27T23:47:46.939Z,36365.56
2023-04-27T23:50:13.525Z,36375.53
2023-04-27T23:52:39.969Z,36367.56
2023-04-27T23:55:07.174Z,36389.50
2023-04-27T23:57:33.612Z,36463.22
